sensor_id;sensor_type;location;lat;lon;timestamp;P1;durP1;ratioP1;P2;durP2;ratioP2
34072;SDS011;20346;52.702;16.886;2023-11-21T00:01:00;1639.10;;;999.90;;
34072;SDS011;20346;52.702;16.886;2023-11-21T00:03:49;1636.40;;;999.90;;
34072;SDS011;20346;52.702;16.886;2023-11-21T00:06:35;1658.80;;;999.90;;
34072;SDS011;20346;52.702;16.886;2023-11-21T00:09:21;1634.00;;;999.90;;
34072;SDS011;20346;52.702;16.886;2023-11-21T00:12:08;1616.20;;;999.90;;
34072;SDS011;20346;52.702;16.886;2023-11-21T00:14:57;1649.40;;;999.90;;
34072;SDS011;20346;52.702;16.886;2023-11-21T00:17:53;1690.80;;;999.90;;
34072;SDS011;20346;52.702;16.886;2023-11-21T00:20:39;1654.00;;;999.90;;
34072;SDS011;20346;52.702;16.886;2023-11-21T00:23:25;1655.00;;;999.90;;
34072;SDS011;20346;52.702;16.886;2023-11-21T00:26:11;1607.50;;;999.90;;
34072;SDS011;20346;52.702;16.886;2023-11-21T00:28:57;1603.50;;;999.90;;
34072;SDS011;20346;52.702;16.886;2023-11-21T00:31:43;1641.10;;;999.90;;
34072;SDS011;20346;52.702;16.886;2023-11-21T00:34:29;1654.30;;;999.90;;
34072;SDS011;20346;52.702;16.886;2023-11-21T00:37:15;1596.70;;;999.90;;
34072;SDS011;20346;52.702;16.886;2023-11-21T00:40:02;1632.90;;;999.90;;
34072;SDS011;20346;52.702;16.886;2023-11-21T00:42:51;1578.90;;;999.90;;
34072;SDS011;20346;52.702;16.886;2023-11-21T00:45:37;1657.70;;;999.90;;
34072;SDS011;20346;52.702;16.886;2023-11-21T00:48:23;1604.70;;;999.90;;
34072;SDS011;20346;52.702;16.886;2023-11-21T00:51:08;1564.20;;;999.90;;
34072;SDS011;20346;52.702;16.886;2023-11-21T00:53:54;1582.30;;;999.90;;
34072;SDS011;20346;52.702;16.886;2023-11-21T00:56:40;1577.80;;;999.90;;
34072;SDS011;20346;52.702;16.886;2023-11-21T00:59:26;1599.20;;;999.90;;
34072;SDS011;20346;52.702;16.886;2023-11-21T01:02:12;1546.40;;;999.90;;
34072;SDS011;20346;52.702;16.886;2023-11-21T01:04:58;1568.40;;;999.90;;
34072;SDS011;20346;52.702;16.886;2023-11-21T01:07:44;1595.00;;;999.90;;
34072;SDS011;20346;52.702;16.886;2023-11-21T01:10:30;1550.90;;;999.90;;
34072;SDS011;20346;52.702;16.886;2023-11-21T01:13:16;1596.60;;;999.90;;
34072;SDS011;20346;52.702;16.886;2023-11-21T01:16:02;1559.80;;;999.90;;
34072;SDS011;20346;52.702;16.886;2023-11-21T01:18:49;1563.90;;;999.90;;
34072;SDS011;20346;52.702;16.886;2023-11-21T01:21:35;1524.30;;;999.90;;
34072;SDS011;20346;52.702;16.886;2023-11-21T01:24:22;1530.90;;;999.90;;
34072;SDS011;20346;52.702;16.886;2023-11-21T01:27:08;1552.70;;;999.90;;
34072;SDS011;20346;52.702;16.886;2023-11-21T01:29:54;1538.80;;;999.90;;
34072;SDS011;20346;52.702;16.886;2023-11-21T01:32:41;1556.10;;;999.90;;
34072;SDS011;20346;52.702;16.886;2023-11-21T01:38:13;1337.80;;;999.90;;
34072;SDS011;20346;52.702;16.886;2023-11-21T01:41:01;1462.40;;;999.90;;
34072;SDS011;20346;52.702;16.886;2023-11-21T01:43:47;1466.40;;;999.90;;
34072;SDS011;20346;52.702;16.886;2023-11-21T01:46:33;1482.60;;;999.90;;
34072;SDS011;20346;52.702;16.886;2023-11-21T01:49:20;1466.60;;;999.90;;
34072;SDS011;20346;52.702;16.886;2023-11-21T01:52:07;1441.50;;;999.90;;
34072;SDS011;20346;52.702;16.886;2023-11-21T01:54:54;1460.90;;;999.90;;
34072;SDS011;20346;52.702;16.886;2023-11-21T02:00:27;1367.80;;;999.90;;
34072;SDS011;20346;52.702;16.886;2023-11-21T02:03:14;1409.30;;;999.90;;
34072;SDS011;20346;52.702;16.886;2023-11-21T02:06:01;1424.00;;;999.90;;
34072;SDS011;20346;52.702;16.886;2023-11-21T02:08:47;1423.70;;;999.90;;
34072;SDS011;20346;52.702;16.886;2023-11-21T02:11:34;1484.00;;;999.90;;
34072;SDS011;20346;52.702;16.886;2023-11-21T02:14:21;1471.10;;;999.90;;
34072;SDS011;20346;52.702;16.886;2023-11-21T02:17:07;1465.20;;;999.90;;
34072;SDS011;20346;52.702;16.886;2023-11-21T02:19:53;1483.10;;;999.90;;
34072;SDS011;20346;52.702;16.886;2023-11-21T02:22:39;1494.70;;;999.90;;
34072;SDS011;20346;52.702;16.886;2023-11-21T02:25:28;1500.40;;;999.90;;
34072;SDS011;20346;52.702;16.886;2023-11-21T02:28:16;1448.80;;;999.90;;
34072;SDS011;20346;52.702;16.886;2023-11-21T02:31:11;1476.30;;;999.90;;
34072;SDS011;20346;52.702;16.886;2023-11-21T02:33:58;1444.30;;;999.90;;
34072;SDS011;20346;52.702;16.886;2023-11-21T02:39:30;1374.90;;;999.90;;
34072;SDS011;20346;52.702;16.886;2023-11-21T02:42:17;1507.90;;;999.90;;
34072;SDS011;20346;52.702;16.886;2023-11-21T02:45:03;1486.60;;;999.90;;
34072;SDS011;20346;52.702;16.886;2023-11-21T02:47:51;1469.50;;;999.90;;
34072;SDS011;20346;52.702;16.886;2023-11-21T02:50:39;1453.90;;;999.90;;
34072;SDS011;20346;52.702;16.886;2023-11-21T02:53:25;1499.10;;;999.90;;
34072;SDS011;20346;52.702;16.886;2023-11-21T02:56:12;1497.10;;;999.90;;
34072;SDS011;20346;52.702;16.886;2023-11-21T02:58:58;1475.20;;;999.90;;
34072;SDS011;20346;52.702;16.886;2023-11-21T03:01:45;1500.60;;;999.90;;
34072;SDS011;20346;52.702;16.886;2023-11-21T03:04:31;1439.30;;;999.90;;
34072;SDS011;20346;52.702;16.886;2023-11-21T03:07:18;1469.00;;;999.90;;
34072;SDS011;20346;52.702;16.886;2023-11-21T03:10:05;1482.60;;;999.90;;
34072;SDS011;20346;52.702;16.886;2023-11-21T03:12:54;1459.80;;;999.90;;
34072;SDS011;20346;52.702;16.886;2023-11-21T03:15:40;1440.00;;;999.90;;
34072;SDS011;20346;52.702;16.886;2023-11-21T03:18:26;1481.80;;;999.90;;
34072;SDS011;20346;52.702;16.886;2023-11-21T03:21:14;1398.90;;;999.90;;
34072;SDS011;20346;52.702;16.886;2023-11-21T03:24:01;1450.50;;;999.90;;
34072;SDS011;20346;52.702;16.886;2023-11-21T03:29:33;1379.80;;;999.90;;
34072;SDS011;20346;52.702;16.886;2023-11-21T03:35:06;1312.60;;;999.90;;
34072;SDS011;20346;52.702;16.886;2023-11-21T03:37:52;1390.50;;;999.90;;
34072;SDS011;20346;52.702;16.886;2023-11-21T03:40:38;1375.60;;;999.90;;
34072;SDS011;20346;52.702;16.886;2023-11-21T03:43:26;1356.70;;;999.90;;
34072;SDS011;20346;52.702;16.886;2023-11-21T03:46:12;1409.30;;;999.90;;
34072;SDS011;20346;52.702;16.886;2023-11-21T03:48:59;1420.30;;;999.90;;
34072;SDS011;20346;52.702;16.886;2023-11-21T03:51:45;1397.00;;;999.90;;
34072;SDS011;20346;52.702;16.886;2023-11-21T03:54:31;1348.00;;;999.90;;
34072;SDS011;20346;52.702;16.886;2023-11-21T04:00:04;1312.70;;;999.90;;
34072;SDS011;20346;52.702;16.886;2023-11-21T04:02:53;1377.50;;;999.90;;
34072;SDS011;20346;52.702;16.886;2023-11-21T04:05:39;1354.00;;;999.90;;
34072;SDS011;20346;52.702;16.886;2023-11-21T04:08:26;1402.20;;;999.90;;
34072;SDS011;20346;52.702;16.886;2023-11-21T04:11:12;1393.90;;;999.90;;
34072;SDS011;20346;52.702;16.886;2023-11-21T04:13:59;1361.30;;;999.90;;
34072;SDS011;20346;52.702;16.886;2023-11-21T04:16:45;1308.50;;;999.90;;
34072;SDS011;20346;52.702;16.886;2023-11-21T04:19:31;1373.60;;;999.90;;
34072;SDS011;20346;52.702;16.886;2023-11-21T04:25:03;1265.70;;;999.90;;
34072;SDS011;20346;52.702;16.886;2023-11-21T04:27:50;1377.10;;;999.90;;
34072;SDS011;20346;52.702;16.886;2023-11-21T04:30:36;1390.40;;;999.90;;
34072;SDS011;20346;52.702;16.886;2023-11-21T04:33:22;1428.70;;;999.90;;
34072;SDS011;20346;52.702;16.886;2023-11-21T04:38:55;1343.20;;;999.90;;
34072;SDS011;20346;52.702;16.886;2023-11-21T04:41:41;1331.30;;;999.90;;
34072;SDS011;20346;52.702;16.886;2023-11-21T04:44:28;1284.30;;;999.90;;
34072;SDS011;20346;52.702;16.886;2023-11-21T04:47:14;1292.00;;;999.90;;
34072;SDS011;20346;52.702;16.886;2023-11-21T04:50:02;1298.80;;;999.90;;
34072;SDS011;20346;52.702;16.886;2023-11-21T04:52:49;1322.00;;;999.90;;
34072;SDS011;20346;52.702;16.886;2023-11-21T04:58:21;1291.20;;;999.90;;
34072;SDS011;20346;52.702;16.886;2023-11-21T05:03:53;1254.00;;;999.90;;
34072;SDS011;20346;52.702;16.886;2023-11-21T05:06:40;1321.10;;;999.90;;
34072;SDS011;20346;52.702;16.886;2023-11-21T05:09:26;1296.60;;;999.90;;
34072;SDS011;20346;52.702;16.886;2023-11-21T05:12:14;1297.10;;;999.90;;
34072;SDS011;20346;52.702;16.886;2023-11-21T05:15:00;1249.60;;;999.90;;
34072;SDS011;20346;52.702;16.886;2023-11-21T05:20:35;1264.50;;;999.90;;
34072;SDS011;20346;52.702;16.886;2023-11-21T05:23:22;1305.40;;;999.90;;
34072;SDS011;20346;52.702;16.886;2023-11-21T05:26:08;1285.50;;;999.90;;
34072;SDS011;20346;52.702;16.886;2023-11-21T05:31:40;1298.00;;;999.90;;
34072;SDS011;20346;52.702;16.886;2023-11-21T05:37:13;1276.80;;;999.90;;
34072;SDS011;20346;52.702;16.886;2023-11-21T05:39:59;1286.30;;;999.90;;
34072;SDS011;20346;52.702;16.886;2023-11-21T05:42:50;1245.00;;;999.90;;
34072;SDS011;20346;52.702;16.886;2023-11-21T05:45:37;1266.30;;;999.90;;
34072;SDS011;20346;52.702;16.886;2023-11-21T05:48:24;1297.50;;;999.90;;
34072;SDS011;20346;52.702;16.886;2023-11-21T05:51:11;1305.30;;;999.90;;
34072;SDS011;20346;52.702;16.886;2023-11-21T05:53:58;1282.00;;;999.90;;
34072;SDS011;20346;52.702;16.886;2023-11-21T05:56:44;1326.30;;;999.90;;
34072;SDS011;20346;52.702;16.886;2023-11-21T05:59:31;1398.60;;;999.90;;
34072;SDS011;20346;52.702;16.886;2023-11-21T06:02:17;1387.80;;;999.90;;
34072;SDS011;20346;52.702;16.886;2023-11-21T06:05:05;1331.30;;;999.90;;
34072;SDS011;20346;52.702;16.886;2023-11-21T06:07:54;1314.10;;;999.90;;
34072;SDS011;20346;52.702;16.886;2023-11-21T06:10:44;1280.20;;;999.90;;
34072;SDS011;20346;52.702;16.886;2023-11-21T06:13:30;1264.80;;;999.90;;
34072;SDS011;20346;52.702;16.886;2023-11-21T06:16:16;1286.50;;;999.90;;
34072;SDS011;20346;52.702;16.886;2023-11-21T06:19:04;1274.80;;;999.90;;
34072;SDS011;20346;52.702;16.886;2023-11-21T06:21:51;1270.40;;;999.90;;
34072;SDS011;20346;52.702;16.886;2023-11-21T06:27:24;1350.10;;;999.90;;
34072;SDS011;20346;52.702;16.886;2023-11-21T06:30:11;1298.50;;;999.90;;
34072;SDS011;20346;52.702;16.886;2023-11-21T06:32:59;1235.80;;;983.20;;
34072;SDS011;20346;52.702;16.886;2023-11-21T06:35:45;1336.90;;;999.90;;
34072;SDS011;20346;52.702;16.886;2023-11-21T06:38:31;1280.40;;;999.90;;
34072;SDS011;20346;52.702;16.886;2023-11-21T06:41:17;1288.50;;;999.90;;
34072;SDS011;20346;52.702;16.886;2023-11-21T06:44:03;1319.10;;;999.90;;
34072;SDS011;20346;52.702;16.886;2023-11-21T06:46:50;1299.40;;;999.90;;
34072;SDS011;20346;52.702;16.886;2023-11-21T06:49:37;1355.10;;;999.90;;
34072;SDS011;20346;52.702;16.886;2023-11-21T06:52:24;1317.60;;;999.90;;
34072;SDS011;20346;52.702;16.886;2023-11-21T06:55:10;1403.90;;;999.90;;
34072;SDS011;20346;52.702;16.886;2023-11-21T07:00:43;1333.00;;;999.90;;
34072;SDS011;20346;52.702;16.886;2023-11-21T07:03:32;1331.60;;;999.90;;
34072;SDS011;20346;52.702;16.886;2023-11-21T07:06:18;1437.70;;;999.90;;
34072;SDS011;20346;52.702;16.886;2023-11-21T07:09:04;1371.80;;;999.90;;
34072;SDS011;20346;52.702;16.886;2023-11-21T07:11:50;1367.70;;;999.90;;
34072;SDS011;20346;52.702;16.886;2023-11-21T07:14:36;1366.30;;;999.90;;
34072;SDS011;20346;52.702;16.886;2023-11-21T07:17:24;1366.80;;;999.90;;
34072;SDS011;20346;52.702;16.886;2023-11-21T07:20:10;1412.20;;;999.90;;
34072;SDS011;20346;52.702;16.886;2023-11-21T07:22:57;1339.60;;;999.90;;
34072;SDS011;20346;52.702;16.886;2023-11-21T07:25:43;1346.20;;;999.90;;
34072;SDS011;20346;52.702;16.886;2023-11-21T07:28:29;1381.00;;;999.90;;
34072;SDS011;20346;52.702;16.886;2023-11-21T07:31:15;1362.20;;;999.90;;
34072;SDS011;20346;52.702;16.886;2023-11-21T07:34:01;1396.80;;;999.90;;
34072;SDS011;20346;52.702;16.886;2023-11-21T07:36:47;1389.20;;;999.90;;
34072;SDS011;20346;52.702;16.886;2023-11-21T07:39:33;1356.90;;;999.90;;
34072;SDS011;20346;52.702;16.886;2023-11-21T07:42:19;1326.90;;;999.90;;
34072;SDS011;20346;52.702;16.886;2023-11-21T07:45:05;1348.80;;;999.90;;
34072;SDS011;20346;52.702;16.886;2023-11-21T07:47:52;1400.20;;;999.90;;
34072;SDS011;20346;52.702;16.886;2023-11-21T07:50:39;1374.30;;;999.90;;
34072;SDS011;20346;52.702;16.886;2023-11-21T07:53:25;1363.40;;;999.90;;
34072;SDS011;20346;52.702;16.886;2023-11-21T07:56:14;1353.10;;;999.90;;
34072;SDS011;20346;52.702;16.886;2023-11-21T07:59:00;1367.10;;;999.90;;
34072;SDS011;20346;52.702;16.886;2023-11-21T08:01:46;1400.20;;;999.90;;
34072;SDS011;20346;52.702;16.886;2023-11-21T08:04:32;1378.40;;;999.90;;
34072;SDS011;20346;52.702;16.886;2023-11-21T08:07:19;1367.60;;;999.90;;
34072;SDS011;20346;52.702;16.886;2023-11-21T08:10:05;1331.50;;;999.90;;
34072;SDS011;20346;52.702;16.886;2023-11-21T08:12:52;1325.70;;;999.90;;
34072;SDS011;20346;52.702;16.886;2023-11-21T08:15:39;1386.20;;;999.90;;
34072;SDS011;20346;52.702;16.886;2023-11-21T08:18:24;1382.00;;;999.90;;
34072;SDS011;20346;52.702;16.886;2023-11-21T08:21:12;1350.50;;;999.90;;
34072;SDS011;20346;52.702;16.886;2023-11-21T08:23:58;1376.30;;;999.90;;
34072;SDS011;20346;52.702;16.886;2023-11-21T08:26:45;1390.10;;;999.90;;
34072;SDS011;20346;52.702;16.886;2023-11-21T08:29:31;1356.90;;;999.90;;
34072;SDS011;20346;52.702;16.886;2023-11-21T08:32:17;1372.90;;;999.90;;
34072;SDS011;20346;52.702;16.886;2023-11-21T08:35:04;1359.70;;;999.90;;
34072;SDS011;20346;52.702;16.886;2023-11-21T08:37:51;1346.70;;;999.90;;
34072;SDS011;20346;52.702;16.886;2023-11-21T08:40:38;1390.10;;;999.90;;
34072;SDS011;20346;52.702;16.886;2023-11-21T08:43:24;1369.30;;;999.90;;
34072;SDS011;20346;52.702;16.886;2023-11-21T08:48:57;1421.40;;;999.90;;
34072;SDS011;20346;52.702;16.886;2023-11-21T08:51:44;1375.40;;;999.90;;
34072;SDS011;20346;52.702;16.886;2023-11-21T08:54:31;1394.30;;;999.90;;
34072;SDS011;20346;52.702;16.886;2023-11-21T08:57:17;1427.70;;;999.90;;
34072;SDS011;20346;52.702;16.886;2023-11-21T09:00:03;1415.70;;;999.90;;
34072;SDS011;20346;52.702;16.886;2023-11-21T09:02:53;1434.30;;;999.90;;
34072;SDS011;20346;52.702;16.886;2023-11-21T09:05:39;1483.30;;;999.90;;
34072;SDS011;20346;52.702;16.886;2023-11-21T09:11:11;1336.00;;;999.90;;
34072;SDS011;20346;52.702;16.886;2023-11-21T09:13:57;1370.20;;;999.90;;
34072;SDS011;20346;52.702;16.886;2023-11-21T09:22:15;1374.20;;;999.90;;
34072;SDS011;20346;52.702;16.886;2023-11-21T09:25:01;1333.50;;;999.90;;
34072;SDS011;20346;52.702;16.886;2023-11-21T09:27:50;1374.80;;;999.90;;
34072;SDS011;20346;52.702;16.886;2023-11-21T09:30:36;1419.40;;;999.90;;
34072;SDS011;20346;52.702;16.886;2023-11-21T09:33:22;1378.20;;;999.90;;
34072;SDS011;20346;52.702;16.886;2023-11-21T09:36:13;1378.20;;;999.90;;
34072;SDS011;20346;52.702;16.886;2023-11-21T09:39:00;1417.50;;;999.90;;
34072;SDS011;20346;52.702;16.886;2023-11-21T09:41:57;1398.80;;;999.90;;
34072;SDS011;20346;52.702;16.886;2023-11-21T09:48:19;1411.70;;;999.90;;
34072;SDS011;20346;52.702;16.886;2023-11-21T09:51:07;1413.70;;;999.90;;
34072;SDS011;20346;52.702;16.886;2023-11-21T09:53:54;1427.60;;;999.90;;
34072;SDS011;20346;52.702;16.886;2023-11-21T09:56:44;1447.80;;;999.90;;
34072;SDS011;20346;52.702;16.886;2023-11-21T09:59:30;1444.40;;;999.90;;
34072;SDS011;20346;52.702;16.886;2023-11-21T10:02:22;1435.80;;;999.90;;
34072;SDS011;20346;52.702;16.886;2023-11-21T10:05:11;1471.60;;;999.90;;
34072;SDS011;20346;52.702;16.886;2023-11-21T10:07:57;1468.50;;;999.90;;
34072;SDS011;20346;52.702;16.886;2023-11-21T10:10:44;1499.20;;;999.90;;
34072;SDS011;20346;52.702;16.886;2023-11-21T10:13:33;1452.10;;;999.90;;
34072;SDS011;20346;52.702;16.886;2023-11-21T10:16:20;1462.70;;;999.90;;
34072;SDS011;20346;52.702;16.886;2023-11-21T10:19:11;1472.70;;;999.90;;
34072;SDS011;20346;52.702;16.886;2023-11-21T10:22:00;1470.30;;;999.90;;
34072;SDS011;20346;52.702;16.886;2023-11-21T10:24:47;1422.20;;;999.90;;
34072;SDS011;20346;52.702;16.886;2023-11-21T10:27:35;1422.10;;;999.90;;
34072;SDS011;20346;52.702;16.886;2023-11-21T10:30:27;1390.30;;;999.90;;
34072;SDS011;20346;52.702;16.886;2023-11-21T10:33:14;1406.60;;;999.90;;
34072;SDS011;20346;52.702;16.886;2023-11-21T10:36:00;978.10;;;867.60;;
34072;SDS011;20346;52.702;16.886;2023-11-21T10:38:48;1342.00;;;999.90;;
34072;SDS011;20346;52.702;16.886;2023-11-21T10:41:39;1311.20;;;999.90;;
34072;SDS011;20346;52.702;16.886;2023-11-21T10:44:25;1329.90;;;999.90;;
34072;SDS011;20346;52.702;16.886;2023-11-21T10:47:12;1330.50;;;999.90;;
34072;SDS011;20346;52.702;16.886;2023-11-21T10:50:00;1320.80;;;999.90;;
34072;SDS011;20346;52.702;16.886;2023-11-21T10:52:47;1334.70;;;999.90;;
34072;SDS011;20346;52.702;16.886;2023-11-21T10:55:34;1187.50;;;999.90;;
34072;SDS011;20346;52.702;16.886;2023-11-21T10:58:20;1316.10;;;999.90;;
34072;SDS011;20346;52.702;16.886;2023-11-21T11:01:07;1298.00;;;999.90;;
34072;SDS011;20346;52.702;16.886;2023-11-21T11:03:54;1237.80;;;999.90;;
34072;SDS011;20346;52.702;16.886;2023-11-21T11:09:27;1168.60;;;999.60;;
34072;SDS011;20346;52.702;16.886;2023-11-21T11:12:14;1197.30;;;999.80;;
34072;SDS011;20346;52.702;16.886;2023-11-21T11:15:00;1222.50;;;999.90;;
34072;SDS011;20346;52.702;16.886;2023-11-21T11:17:48;1231.40;;;999.90;;
34072;SDS011;20346;52.702;16.886;2023-11-21T11:20:34;1054.70;;;948.10;;
34072;SDS011;20346;52.702;16.886;2023-11-21T11:30:18;1125.30;;;992.40;;
34072;SDS011;20346;52.702;16.886;2023-11-21T11:33:43;1138.10;;;997.70;;
34072;SDS011;20346;52.702;16.886;2023-11-21T11:36:37;1150.40;;;999.90;;
34072;SDS011;20346;52.702;16.886;2023-11-21T11:39:37;1193.50;;;999.90;;
34072;SDS011;20346;52.702;16.886;2023-11-21T11:42:24;1173.70;;;999.90;;
34072;SDS011;20346;52.702;16.886;2023-11-21T11:45:18;1189.30;;;999.90;;
34072;SDS011;20346;52.702;16.886;2023-11-21T11:48:07;1228.60;;;999.90;;
34072;SDS011;20346;52.702;16.886;2023-11-21T11:53:49;1151.40;;;999.20;;
34072;SDS011;20346;52.702;16.886;2023-11-21T11:56:37;1178.30;;;999.90;;
34072;SDS011;20346;52.702;16.886;2023-11-21T11:59:25;1179.40;;;999.90;;
34072;SDS011;20346;52.702;16.886;2023-11-21T12:04:58;964.90;;;862.80;;
34072;SDS011;20346;52.702;16.886;2023-11-21T12:07:50;1160.50;;;999.70;;
34072;SDS011;20346;52.702;16.886;2023-11-21T12:10:40;1137.20;;;998.20;;
34072;SDS011;20346;52.702;16.886;2023-11-21T12:13:26;1172.20;;;999.90;;
34072;SDS011;20346;52.702;16.886;2023-11-21T12:16:14;1181.20;;;999.90;;
34072;SDS011;20346;52.702;16.886;2023-11-21T12:19:00;1165.50;;;999.90;;
34072;SDS011;20346;52.702;16.886;2023-11-21T12:21:46;1130.40;;;985.80;;
34072;SDS011;20346;52.702;16.886;2023-11-21T12:24:34;1210.00;;;999.90;;
34072;SDS011;20346;52.702;16.886;2023-11-21T12:27:20;1138.90;;;998.60;;
34072;SDS011;20346;52.702;16.886;2023-11-21T12:30:07;1207.20;;;999.90;;
34072;SDS011;20346;52.702;16.886;2023-11-21T12:32:59;1251.80;;;999.90;;
34072;SDS011;20346;52.702;16.886;2023-11-21T12:35:49;1285.80;;;999.90;;
34072;SDS011;20346;52.702;16.886;2023-11-21T12:38:35;1293.70;;;999.90;;
34072;SDS011;20346;52.702;16.886;2023-11-21T12:41:21;1285.40;;;999.90;;
34072;SDS011;20346;52.702;16.886;2023-11-21T12:44:12;1282.90;;;999.90;;
34072;SDS011;20346;52.702;16.886;2023-11-21T12:47:00;1301.30;;;999.90;;
34072;SDS011;20346;52.702;16.886;2023-11-21T12:49:46;1319.10;;;999.90;;
34072;SDS011;20346;52.702;16.886;2023-11-21T12:52:34;1294.80;;;999.90;;
34072;SDS011;20346;52.702;16.886;2023-11-21T12:55:20;1210.00;;;999.90;;
34072;SDS011;20346;52.702;16.886;2023-11-21T12:58:07;1325.20;;;999.90;;
34072;SDS011;20346;52.702;16.886;2023-11-21T13:00:55;1191.20;;;999.90;;
34072;SDS011;20346;52.702;16.886;2023-11-21T13:03:48;1208.00;;;999.90;;
34072;SDS011;20346;52.702;16.886;2023-11-21T13:06:36;1277.00;;;999.90;;
34072;SDS011;20346;52.702;16.886;2023-11-21T13:09:26;1202.30;;;999.90;;
34072;SDS011;20346;52.702;16.886;2023-11-21T13:12:13;1173.90;;;999.90;;
34072;SDS011;20346;52.702;16.886;2023-11-21T13:15:05;1446.00;;;999.90;;
34072;SDS011;20346;52.702;16.886;2023-11-21T13:17:53;1408.00;;;999.90;;
34072;SDS011;20346;52.702;16.886;2023-11-21T13:20:40;1509.80;;;999.90;;
34072;SDS011;20346;52.702;16.886;2023-11-21T13:23:26;1434.10;;;999.90;;
34072;SDS011;20346;52.702;16.886;2023-11-21T13:26:12;1413.80;;;999.90;;
34072;SDS011;20346;52.702;16.886;2023-11-21T13:29:00;1399.30;;;999.90;;
34072;SDS011;20346;52.702;16.886;2023-11-21T13:31:46;1411.70;;;999.90;;
34072;SDS011;20346;52.702;16.886;2023-11-21T13:34:36;1330.80;;;999.90;;
34072;SDS011;20346;52.702;16.886;2023-11-21T13:37:22;1365.30;;;999.90;;
34072;SDS011;20346;52.702;16.886;2023-11-21T13:40:10;1326.50;;;999.90;;
34072;SDS011;20346;52.702;16.886;2023-11-21T13:43:00;1325.60;;;999.90;;
34072;SDS011;20346;52.702;16.886;2023-11-21T13:45:50;1299.80;;;999.90;;
34072;SDS011;20346;52.702;16.886;2023-11-21T13:49:00;1287.30;;;999.90;;
34072;SDS011;20346;52.702;16.886;2023-11-21T13:51:46;1331.80;;;999.90;;
34072;SDS011;20346;52.702;16.886;2023-11-21T13:54:36;1451.60;;;999.90;;
34072;SDS011;20346;52.702;16.886;2023-11-21T13:57:22;1476.50;;;999.90;;
34072;SDS011;20346;52.702;16.886;2023-11-21T14:00:08;1497.10;;;999.90;;
34072;SDS011;20346;52.702;16.886;2023-11-21T14:03:12;1508.50;;;999.90;;
34072;SDS011;20346;52.702;16.886;2023-11-21T14:06:07;1463.60;;;999.90;;
34072;SDS011;20346;52.702;16.886;2023-11-21T14:09:00;1491.30;;;999.90;;
34072;SDS011;20346;52.702;16.886;2023-11-21T14:11:54;1403.30;;;999.90;;
34072;SDS011;20346;52.702;16.886;2023-11-21T14:14:44;1407.20;;;999.90;;
34072;SDS011;20346;52.702;16.886;2023-11-21T14:17:32;1382.40;;;999.90;;
34072;SDS011;20346;52.702;16.886;2023-11-21T14:20:20;1350.00;;;999.90;;
34072;SDS011;20346;52.702;16.886;2023-11-21T14:23:06;1381.20;;;999.90;;
34072;SDS011;20346;52.702;16.886;2023-11-21T14:25:53;1176.80;;;999.90;;
34072;SDS011;20346;52.702;16.886;2023-11-21T14:28:39;1361.00;;;999.90;;
34072;SDS011;20346;52.702;16.886;2023-11-21T14:31:25;1195.80;;;999.90;;
34072;SDS011;20346;52.702;16.886;2023-11-21T14:34:11;1155.50;;;999.90;;
34072;SDS011;20346;52.702;16.886;2023-11-21T14:36:59;1167.50;;;999.90;;
34072;SDS011;20346;52.702;16.886;2023-11-21T14:39:45;1250.40;;;981.60;;
34072;SDS011;20346;52.702;16.886;2023-11-21T14:42:34;1274.60;;;992.60;;
34072;SDS011;20346;52.702;16.886;2023-11-21T14:45:22;1309.80;;;995.00;;
34072;SDS011;20346;52.702;16.886;2023-11-21T14:48:12;1366.20;;;999.90;;
34072;SDS011;20346;52.702;16.886;2023-11-21T14:51:17;1396.70;;;997.70;;
34072;SDS011;20346;52.702;16.886;2023-11-21T14:54:29;1452.10;;;999.90;;
34072;SDS011;20346;52.702;16.886;2023-11-21T14:57:26;1467.20;;;999.90;;
34072;SDS011;20346;52.702;16.886;2023-11-21T15:00:13;1271.60;;;982.80;;
34072;SDS011;20346;52.702;16.886;2023-11-21T15:03:17;1250.90;;;987.80;;
34072;SDS011;20346;52.702;16.886;2023-11-21T15:06:26;1270.80;;;981.90;;
34072;SDS011;20346;52.702;16.886;2023-11-21T15:09:14;1119.00;;;951.20;;
34072;SDS011;20346;52.702;16.886;2023-11-21T15:15:00;1444.10;;;999.90;;
34072;SDS011;20346;52.702;16.886;2023-11-21T15:17:48;1410.00;;;999.90;;
34072;SDS011;20346;52.702;16.886;2023-11-21T15:23:20;1438.60;;;999.90;;
34072;SDS011;20346;52.702;16.886;2023-11-21T15:26:07;1341.50;;;999.90;;
34072;SDS011;20346;52.702;16.886;2023-11-21T15:28:55;1379.50;;;999.90;;
34072;SDS011;20346;52.702;16.886;2023-11-21T15:31:42;1284.00;;;994.20;;
34072;SDS011;20346;52.702;16.886;2023-11-21T15:34:34;1218.90;;;979.60;;
34072;SDS011;20346;52.702;16.886;2023-11-21T15:37:21;950.90;;;852.90;;
34072;SDS011;20346;52.702;16.886;2023-11-21T15:42:54;1203.40;;;970.80;;
34072;SDS011;20346;52.702;16.886;2023-11-21T15:45:41;1018.30;;;896.20;;
34072;SDS011;20346;52.702;16.886;2023-11-21T15:48:27;903.10;;;813.10;;
34072;SDS011;20346;52.702;16.886;2023-11-21T15:51:13;973.30;;;872.30;;
34072;SDS011;20346;52.702;16.886;2023-11-21T15:56:46;1096.50;;;935.60;;
34072;SDS011;20346;52.702;16.886;2023-11-21T15:59:32;1316.80;;;999.90;;
34072;SDS011;20346;52.702;16.886;2023-11-21T16:02:18;1514.00;;;999.90;;
34072;SDS011;20346;52.702;16.886;2023-11-21T16:05:05;1147.50;;;965.80;;
34072;SDS011;20346;52.702;16.886;2023-11-21T16:07:51;1392.60;;;999.90;;
34072;SDS011;20346;52.702;16.886;2023-11-21T16:10:38;1350.80;;;998.70;;
34072;SDS011;20346;52.702;16.886;2023-11-21T16:13:24;1210.90;;;989.20;;
34072;SDS011;20346;52.702;16.886;2023-11-21T16:18:56;1477.30;;;999.90;;
34072;SDS011;20346;52.702;16.886;2023-11-21T16:24:33;1484.40;;;999.90;;
34072;SDS011;20346;52.702;16.886;2023-11-21T16:27:19;1376.50;;;999.90;;
34072;SDS011;20346;52.702;16.886;2023-11-21T16:30:06;1473.40;;;999.90;;
34072;SDS011;20346;52.702;16.886;2023-11-21T16:32:56;1265.90;;;994.70;;
34072;SDS011;20346;52.702;16.886;2023-11-21T16:38:29;1544.20;;;999.90;;
34072;SDS011;20346;52.702;16.886;2023-11-21T16:41:15;1507.50;;;999.90;;
34072;SDS011;20346;52.702;16.886;2023-11-21T16:44:03;1376.00;;;999.90;;
34072;SDS011;20346;52.702;16.886;2023-11-21T16:46:50;1367.40;;;999.90;;
34072;SDS011;20346;52.702;16.886;2023-11-21T16:49:44;1415.20;;;999.90;;
34072;SDS011;20346;52.702;16.886;2023-11-21T16:52:30;1409.30;;;999.90;;
34072;SDS011;20346;52.702;16.886;2023-11-21T16:55:16;1395.10;;;999.90;;
34072;SDS011;20346;52.702;16.886;2023-11-21T16:58:02;1363.20;;;999.90;;